sensor_id;sensor_type;location;lat;lon;timestamp;pressure;altitude;pressure_sealevel;temperature;humidity
77235;BME280;66253;50.526;14.974;2023-08-07T00:00:38;97889.98;;;15.44;80.35
77235;BME280;66253;50.526;14.974;2023-08-07T00:03:07;97886.56;;;15.42;80.46
77235;BME280;66253;50.526;14.974;2023-08-07T00:05:35;97882.88;;;15.40;80.33
77235;BME280;66253;50.526;14.974;2023-08-07T00:08:03;97882.72;;;15.41;80.26
77235;BME280;66253;50.526;14.974;2023-08-07T00:10:32;97881.09;;;15.40;80.26
77235;BME280;66253;50.526;14.974;2023-08-07T00:13:00;97874.13;;;15.37;80.28
77235;BME280;66253;50.526;14.974;2023-08-07T00:15:28;97884.13;;;15.37;80.65
77235;BME280;66253;50.526;14.974;2023-08-07T00:17:57;97885.29;;;15.36;80.44
77235;BME280;66253;50.526;14.974;2023-08-07T00:20:25;97884.16;;;15.33;80.18
77235;BME280;66253;50.526;14.974;2023-08-07T00:22:53;97885.16;;;15.30;80.18
77235;BME280;66253;50.526;14.974;2023-08-07T00:25:22;97878.58;;;15.26;80.31
77235;BME280;66253;50.526;14.974;2023-08-07T00:27:50;97878.06;;;15.24;80.35
77235;BME280;66253;50.526;14.974;2023-08-07T00:30:18;97880.11;;;15.23;80.53
77235;BME280;66253;50.526;14.974;2023-08-07T00:32:47;97869.52;;;15.20;80.38
77235;BME280;66253;50.526;14.974;2023-08-07T00:35:15;97874.55;;;15.20;80.60
77235;BME280;66253;50.526;14.974;2023-08-07T00:37:44;97870.58;;;15.18;80.70
77235;BME280;66253;50.526;14.974;2023-08-07T00:40:12;97869.50;;;15.19;80.60
77235;BME280;66253;50.526;14.974;2023-08-07T00:42:41;97875.70;;;15.17;80.57
77235;BME280;66253;50.526;14.974;2023-08-07T00:45:10;97876.48;;;15.16;80.49
77235;BME280;66253;50.526;14.974;2023-08-07T00:47:37;97874.91;;;15.15;80.43
77235;BME280;66253;50.526;14.974;2023-08-07T00:50:07;97878.15;;;15.13;80.47
77235;BME280;66253;50.526;14.974;2023-08-07T00:52:35;97882.14;;;15.11;80.65
77235;BME280;66253;50.526;14.974;2023-08-07T00:55:05;97879.64;;;15.10;80.56
77235;BME280;66253;50.526;14.974;2023-08-07T00:57:33;97877.14;;;15.08;80.65
77235;BME280;66253;50.526;14.974;2023-08-07T01:00:03;97879.23;;;15.07;80.69
77235;BME280;66253;50.526;14.974;2023-08-07T01:02:34;97877.83;;;15.06;80.83
77235;BME280;66253;50.526;14.974;2023-08-07T01:05:02;97880.66;;;15.05;80.71
77235;BME280;66253;50.526;14.974;2023-08-07T01:07:31;97884.30;;;15.04;80.72
77235;BME280;66253;50.526;14.974;2023-08-07T01:09:59;97884.55;;;15.03;80.60
77235;BME280;66253;50.526;14.974;2023-08-07T01:12:31;97891.33;;;15.03;80.88
77235;BME280;66253;50.526;14.974;2023-08-07T01:15:03;97895.85;;;15.02;81.00
77235;BME280;66253;50.526;14.974;2023-08-07T01:17:36;97895.04;;;15.02;80.92
77235;BME280;66253;50.526;14.974;2023-08-07T01:20:07;97894.49;;;15.02;80.85
77235;BME280;66253;50.526;14.974;2023-08-07T01:22:36;97891.17;;;15.02;80.93
77235;BME280;66253;50.526;14.974;2023-08-07T01:25:05;97887.23;;;15.02;81.03
77235;BME280;66253;50.526;14.974;2023-08-07T01:27:36;97888.17;;;15.02;80.91
77235;BME280;66253;50.526;14.974;2023-08-07T01:30:11;97887.65;;;15.02;80.89
77235;BME280;66253;50.526;14.974;2023-08-07T01:32:47;97886.30;;;15.02;81.17
77235;BME280;66253;50.526;14.974;2023-08-07T01:35:19;97887.33;;;15.01;81.00
77235;BME280;66253;50.526;14.974;2023-08-07T01:37:51;97885.98;;;15.01;81.18
77235;BME280;66253;50.526;14.974;2023-08-07T01:40:21;97887.23;;;15.02;81.11
77235;BME280;66253;50.526;14.974;2023-08-07T01:42:50;97897.78;;;15.02;81.04
77235;BME280;66253;50.526;14.974;2023-08-07T01:45:24;97898.81;;;15.02;80.95
77235;BME280;66253;50.526;14.974;2023-08-07T01:47:53;97899.84;;;15.02;80.98
77235;BME280;66253;50.526;14.974;2023-08-07T01:50:22;97899.20;;;15.03;81.00
77235;BME280;66253;50.526;14.974;2023-08-07T01:52:51;97896.73;;;15.04;80.90
77235;BME280;66253;50.526;14.974;2023-08-07T01:55:20;97896.88;;;15.04;81.08
77235;BME280;66253;50.526;14.974;2023-08-07T01:57:49;97892.88;;;15.05;80.99
77235;BME280;66253;50.526;14.974;2023-08-07T02:00:18;97890.82;;;15.05;81.03
77235;BME280;66253;50.526;14.974;2023-08-07T02:02:46;97891.90;;;15.04;81.01
77235;BME280;66253;50.526;14.974;2023-08-07T02:05:15;97892.52;;;15.05;81.21
77235;BME280;66253;50.526;14.974;2023-08-07T02:07:44;97898.73;;;15.04;81.20
77235;BME280;66253;50.526;14.974;2023-08-07T02:10:12;97901.67;;;15.04;81.21
77235;BME280;66253;50.526;14.974;2023-08-07T02:12:41;97901.48;;;15.04;81.23
77235;BME280;66253;50.526;14.974;2023-08-07T02:15:10;97902.75;;;15.06;81.29
77235;BME280;66253;50.526;14.974;2023-08-07T02:17:38;97903.86;;;15.07;81.27
77235;BME280;66253;50.526;14.974;2023-08-07T02:20:08;97903.34;;;15.07;81.14
77235;BME280;66253;50.526;14.974;2023-08-07T02:22:37;97906.13;;;15.08;81.19
77235;BME280;66253;50.526;14.974;2023-08-07T02:25:06;97905.48;;;15.08;81.23
77235;BME280;66253;50.526;14.974;2023-08-07T02:27:33;97907.29;;;15.09;81.45
77235;BME280;66253;50.526;14.974;2023-08-07T02:30:02;97908.13;;;15.09;81.28
77235;BME280;66253;50.526;14.974;2023-08-07T02:32:31;97907.61;;;15.09;81.11
77235;BME280;66253;50.526;14.974;2023-08-07T02:34:59;97909.16;;;15.09;81.23
77235;BME280;66253;50.526;14.974;2023-08-07T02:37:27;97909.06;;;15.08;81.23
77235;BME280;66253;50.526;14.974;2023-08-07T02:39:56;97910.64;;;15.08;81.28
77235;BME280;66253;50.526;14.974;2023-08-07T02:42:24;97912.38;;;15.08;81.08
77235;BME280;66253;50.526;14.974;2023-08-07T02:44:52;97910.09;;;15.08;81.21
77235;BME280;66253;50.526;14.974;2023-08-07T02:47:21;97913.70;;;15.08;81.10
77235;BME280;66253;50.526;14.974;2023-08-07T02:49:49;97918.54;;;15.08;80.93
77235;BME280;66253;50.526;14.974;2023-08-07T02:52:17;97919.24;;;15.08;81.28
77235;BME280;66253;50.526;14.974;2023-08-07T02:54:46;97917.00;;;15.04;81.07
77235;BME280;66253;50.526;14.974;2023-08-07T02:57:14;97913.48;;;15.03;81.02
77235;BME280;66253;50.526;14.974;2023-08-07T02:59:42;97911.95;;;15.03;81.17
77235;BME280;66253;50.526;14.974;2023-08-07T03:02:10;97912.08;;;15.03;81.10
77235;BME280;66253;50.526;14.974;2023-08-07T03:04:39;97910.15;;;15.03;81.14
77235;BME280;66253;50.526;14.974;2023-08-07T03:07:07;97909.52;;;15.03;81.07
77235;BME280;66253;50.526;14.974;2023-08-07T03:09:35;97908.39;;;15.02;80.98
77235;BME280;66253;50.526;14.974;2023-08-07T03:12:05;97908.80;;;15.02;81.11
77235;BME280;66253;50.526;14.974;2023-08-07T03:14:31;97909.51;;;15.00;80.96
77235;BME280;66253;50.526;14.974;2023-08-07T03:17:00;97910.23;;;14.99;81.03
77235;BME280;66253;50.526;14.974;2023-08-07T03:19:28;97912.28;;;14.98;81.15
77235;BME280;66253;50.526;14.974;2023-08-07T03:21:56;97911.42;;;14.96;81.07
77235;BME280;66253;50.526;14.974;2023-08-07T03:24:24;97911.98;;;14.94;81.16
77235;BME280;66253;50.526;14.974;2023-08-07T03:26:53;97914.95;;;14.93;81.24
77235;BME280;66253;50.526;14.974;2023-08-07T03:29:21;97917.53;;;14.93;81.44
77235;BME280;66253;50.526;14.974;2023-08-07T03:31:49;97920.29;;;14.93;81.15
77235;BME280;66253;50.526;14.974;2023-08-07T03:34:18;97922.76;;;14.92;81.14
77235;BME280;66253;50.526;14.974;2023-08-07T03:36:46;97927.33;;;14.91;81.24
77235;BME280;66253;50.526;14.974;2023-08-07T03:39:14;97925.48;;;14.91;81.11
77235;BME280;66253;50.526;14.974;2023-08-07T03:41:43;97928.10;;;14.91;81.15
77235;BME280;66253;50.526;14.974;2023-08-07T03:44:11;97922.56;;;14.89;81.06
77235;BME280;66253;50.526;14.974;2023-08-07T03:46:40;97923.59;;;14.88;81.14
77235;BME280;66253;50.526;14.974;2023-08-07T03:49:08;97926.81;;;14.86;81.40
77235;BME280;66253;50.526;14.974;2023-08-07T03:51:36;97926.28;;;14.84;81.48
77235;BME280;66253;50.526;14.974;2023-08-07T03:54:05;97929.10;;;14.84;81.31
77235;BME280;66253;50.526;14.974;2023-08-07T03:56:34;97933.05;;;14.84;81.42
77235;BME280;66253;50.526;14.974;2023-08-07T03:59:02;97935.82;;;14.84;81.46
77235;BME280;66253;50.526;14.974;2023-08-07T04:01:30;97935.79;;;14.84;81.61
77235;BME280;66253;50.526;14.974;2023-08-07T04:03:59;97943.55;;;14.84;81.54
77235;BME280;66253;50.526;14.974;2023-08-07T04:06:27;97947.37;;;14.83;81.61
77235;BME280;66253;50.526;14.974;2023-08-07T04:08:55;97947.11;;;14.82;81.62
77235;BME280;66253;50.526;14.974;2023-08-07T04:11:24;97954.20;;;14.82;81.88
77235;BME280;66253;50.526;14.974;2023-08-07T04:13:52;97953.30;;;14.82;81.96
77235;BME280;66253;50.526;14.974;2023-08-07T04:16:20;97953.22;;;14.83;81.98
77235;BME280;66253;50.526;14.974;2023-08-07T04:18:49;97954.85;;;14.84;81.94
77235;BME280;66253;50.526;14.974;2023-08-07T04:21:17;97953.30;;;14.84;81.82
77235;BME280;66253;50.526;14.974;2023-08-07T04:23:45;97951.72;;;14.82;81.93
77235;BME280;66253;50.526;14.974;2023-08-07T04:26:13;97953.52;;;14.82;82.14
77235;BME280;66253;50.526;14.974;2023-08-07T04:28:42;97952.83;;;14.79;82.36
77235;BME280;66253;50.526;14.974;2023-08-07T04:31:10;97954.41;;;14.77;82.07
77235;BME280;66253;50.526;14.974;2023-08-07T04:33:39;97952.83;;;14.76;82.08
77235;BME280;66253;50.526;14.974;2023-08-07T04:36:07;97953.54;;;14.76;82.09
77235;BME280;66253;50.526;14.974;2023-08-07T04:38:35;97956.09;;;14.76;82.27
77235;BME280;66253;50.526;14.974;2023-08-07T04:41:04;97952.73;;;14.77;82.18
77235;BME280;66253;50.526;14.974;2023-08-07T04:43:32;97951.83;;;14.77;82.38
77235;BME280;66253;50.526;14.974;2023-08-07T04:46:01;97956.06;;;14.78;82.19
77235;BME280;66253;50.526;14.974;2023-08-07T04:48:30;97960.23;;;14.79;82.24
77235;BME280;66253;50.526;14.974;2023-08-07T04:50:59;97961.45;;;14.79;82.08
77235;BME280;66253;50.526;14.974;2023-08-07T04:53:28;97963.98;;;14.80;82.16
77235;BME280;66253;50.526;14.974;2023-08-07T04:55:56;97967.02;;;14.81;82.43
77235;BME280;66253;50.526;14.974;2023-08-07T04:58:24;97965.35;;;14.80;82.58
77235;BME280;66253;50.526;14.974;2023-08-07T05:00:56;97969.05;;;14.79;82.66
77235;BME280;66253;50.526;14.974;2023-08-07T05:03:25;97970.14;;;14.78;82.39
77235;BME280;66253;50.526;14.974;2023-08-07T05:05:59;97977.23;;;14.78;82.51
77235;BME280;66253;50.526;14.974;2023-08-07T05:08:27;97975.52;;;14.78;82.13
77235;BME280;66253;50.526;14.974;2023-08-07T05:10:56;97971.56;;;14.78;82.48
77235;BME280;66253;50.526;14.974;2023-08-07T05:13:24;97972.98;;;14.79;82.37
77235;BME280;66253;50.526;14.974;2023-08-07T05:15:52;97977.69;;;14.80;82.34
77235;BME280;66253;50.526;14.974;2023-08-07T05:18:21;97980.52;;;14.79;82.26
77235;BME280;66253;50.526;14.974;2023-08-07T05:20:49;97988.28;;;14.77;82.15
77235;BME280;66253;50.526;14.974;2023-08-07T05:23:17;97996.38;;;14.75;82.36
77235;BME280;66253;50.526;14.974;2023-08-07T05:25:47;98008.14;;;14.71;81.98
77235;BME280;66253;50.526;14.974;2023-08-07T05:28:15;98012.23;;;14.66;82.29
77235;BME280;66253;50.526;14.974;2023-08-07T05:30:44;98014.11;;;14.64;82.56
77235;BME280;66253;50.526;14.974;2023-08-07T05:33:12;98011.83;;;14.63;82.70
77235;BME280;66253;50.526;14.974;2023-08-07T05:35:40;98014.32;;;14.63;82.89
77235;BME280;66253;50.526;14.974;2023-08-07T05:38:08;98014.59;;;14.66;83.03
77235;BME280;66253;50.526;14.974;2023-08-07T05:40:37;98020.12;;;14.70;82.98
77235;BME280;66253;50.526;14.974;2023-08-07T05:43:06;98021.70;;;14.73;82.81
77235;BME280;66253;50.526;14.974;2023-08-07T05:45:34;98024.95;;;14.77;82.89
77235;BME280;66253;50.526;14.974;2023-08-07T05:48:03;98024.41;;;14.81;82.69
77235;BME280;66253;50.526;14.974;2023-08-07T05:50:31;98028.73;;;14.84;82.75
77235;BME280;66253;50.526;14.974;2023-08-07T05:52:59;98034.80;;;14.89;82.67
77235;BME280;66253;50.526;14.974;2023-08-07T05:55:28;98041.14;;;14.93;82.95
77235;BME280;66253;50.526;14.974;2023-08-07T05:57:56;98043.42;;;14.98;82.85
77235;BME280;66253;50.526;14.974;2023-08-07T06:00:24;98049.83;;;15.01;82.67
77235;BME280;66253;50.526;14.974;2023-08-07T06:02:55;98052.71;;;15.06;82.77
77235;BME280;66253;50.526;14.974;2023-08-07T06:05:23;98051.06;;;15.10;82.60
77235;BME280;66253;50.526;14.974;2023-08-07T06:07:52;98057.35;;;15.13;82.51
77235;BME280;66253;50.526;14.974;2023-08-07T06:10:20;98061.79;;;15.15;82.62
77235;BME280;66253;50.526;14.974;2023-08-07T06:12:48;98059.48;;;15.18;82.31
77235;BME280;66253;50.526;14.974;2023-08-07T06:15:17;98069.98;;;15.20;82.04
77235;BME280;66253;50.526;14.974;2023-08-07T06:17:45;98075.12;;;15.22;81.92
77235;BME280;66253;50.526;14.974;2023-08-07T06:20:15;98078.96;;;15.23;81.85
77235;BME280;66253;50.526;14.974;2023-08-07T06:22:43;98082.39;;;15.25;82.01
77235;BME280;66253;50.526;14.974;2023-08-07T06:25:11;98087.23;;;15.26;81.71
77235;BME280;66253;50.526;14.974;2023-08-07T06:27:40;98091.60;;;15.29;81.90
77235;BME280;66253;50.526;14.974;2023-08-07T06:30:09;98092.67;;;15.33;81.99
77235;BME280;66253;50.526;14.974;2023-08-07T06:32:38;98090.35;;;15.36;81.87
77235;BME280;66253;50.526;14.974;2023-08-07T06:35:07;98099.15;;;15.40;81.99
77235;BME280;66253;50.526;14.974;2023-08-07T06:37:36;98102.25;;;15.46;82.11
77235;BME280;66253;50.526;14.974;2023-08-07T06:40:05;98103.91;;;15.50;82.09
77235;BME280;66253;50.526;14.974;2023-08-07T06:42:34;98101.79;;;15.55;81.95
77235;BME280;66253;50.526;14.974;2023-08-07T06:45:02;98104.84;;;15.59;81.74
77235;BME280;66253;50.526;14.974;2023-08-07T06:47:32;98104.02;;;15.64;81.89
77235;BME280;66253;50.526;14.974;2023-08-07T06:50:00;98109.57;;;15.69;81.76
77235;BME280;66253;50.526;14.974;2023-08-07T06:52:30;98110.16;;;15.76;81.72
77235;BME280;66253;50.526;14.974;2023-08-07T06:54:58;98109.78;;;15.80;81.40
77235;BME280;66253;50.526;14.974;2023-08-07T06:57:27;98111.42;;;15.86;81.56
77235;BME280;66253;50.526;14.974;2023-08-07T06:59:55;98110.84;;;15.92;81.33
77235;BME280;66253;50.526;14.974;2023-08-07T07:02:23;98115.23;;;15.97;81.13
77235;BME280;66253;50.526;14.974;2023-08-07T07:04:52;98119.98;;;16.03;80.74
77235;BME280;66253;50.526;14.974;2023-08-07T07:07:20;98123.82;;;16.09;80.79
77235;BME280;66253;50.526;14.974;2023-08-07T07:09:48;98127.26;;;16.15;80.63
77235;BME280;66253;50.526;14.974;2023-08-07T07:12:17;98127.96;;;16.18;80.43
77235;BME280;66253;50.526;14.974;2023-08-07T07:14:45;98129.52;;;16.20;80.03
77235;BME280;66253;50.526;14.974;2023-08-07T07:17:13;98130.48;;;16.20;79.99
77235;BME280;66253;50.526;14.974;2023-08-07T07:19:42;98131.31;;;16.23;79.87
77235;BME280;66253;50.526;14.974;2023-08-07T07:22:11;98136.86;;;16.26;80.03
77235;BME280;66253;50.526;14.974;2023-08-07T07:24:39;98145.10;;;16.30;80.18
77235;BME280;66253;50.526;14.974;2023-08-07T07:27:08;98147.27;;;16.34;80.17
77235;BME280;66253;50.526;14.974;2023-08-07T07:29:36;98147.61;;;16.40;80.29
77235;BME280;66253;50.526;14.974;2023-08-07T07:32:06;98150.61;;;16.44;79.98
77235;BME280;66253;50.526;14.974;2023-08-07T07:34:35;98156.15;;;16.49;79.85
77235;BME280;66253;50.526;14.974;2023-08-07T07:37:03;98154.20;;;16.52;79.68
77235;BME280;66253;50.526;14.974;2023-08-07T07:39:32;98158.40;;;16.55;79.64
77235;BME280;66253;50.526;14.974;2023-08-07T07:42:02;98161.46;;;16.58;79.36
77235;BME280;66253;50.526;14.974;2023-08-07T07:44:30;98163.64;;;16.61;79.31
77235;BME280;66253;50.526;14.974;2023-08-07T07:46:59;98165.60;;;16.64;79.43
77235;BME280;66253;50.526;14.974;2023-08-07T07:49:27;98167.91;;;16.68;79.54
77235;BME280;66253;50.526;14.974;2023-08-07T07:51:55;98171.52;;;16.77;79.87
77235;BME280;66253;50.526;14.974;2023-08-07T07:54:24;98170.20;;;16.86;79.82
77235;BME280;66253;50.526;14.974;2023-08-07T07:56:52;98178.96;;;16.95;79.81
77235;BME280;66253;50.526;14.974;2023-08-07T07:59:20;98181.86;;;17.02;79.36
77235;BME280;66253;50.526;14.974;2023-08-07T08:01:48;98184.98;;;17.10;79.04
77235;BME280;66253;50.526;14.974;2023-08-07T08:04:17;98186.38;;;17.18;78.89
77235;BME280;66253;50.526;14.974;2023-08-07T08:06:45;98189.80;;;17.25;78.85
77235;BME280;66253;50.526;14.974;2023-08-07T08:09:14;98190.02;;;17.30;78.23
77235;BME280;66253;50.526;14.974;2023-08-07T08:11:42;98193.61;;;17.31;77.66
77235;BME280;66253;50.526;14.974;2023-08-07T08:14:15;98187.66;;;17.32;77.72
77235;BME280;66253;50.526;14.974;2023-08-07T08:16:43;98191.73;;;17.33;77.32
77235;BME280;66253;50.526;14.974;2023-08-07T08:19:12;98189.70;;;17.31;76.95
77235;BME280;66253;50.526;14.974;2023-08-07T08:21:41;98194.73;;;17.27;76.30
77235;BME280;66253;50.526;14.974;2023-08-07T08:24:10;98196.42;;;17.21;76.32
77235;BME280;66253;50.526;14.974;2023-08-07T08:26:38;98199.71;;;17.17;76.30
77235;BME280;66253;50.526;14.974;2023-08-07T08:29:13;98202.55;;;17.11;76.24
77235;BME280;66253;50.526;14.974;2023-08-07T08:31:42;98212.48;;;17.06;76.31
77235;BME280;66253;50.526;14.974;2023-08-07T08:34:12;98216.28;;;17.03;76.04
77235;BME280;66253;50.526;14.974;2023-08-07T08:36:40;98215.84;;;17.00;75.96
77235;BME280;66253;50.526;14.974;2023-08-07T08:39:09;98216.98;;;17.08;76.80
77235;BME280;66253;50.526;14.974;2023-08-07T08:41:37;98215.17;;;17.21;77.73
77235;BME280;66253;50.526;14.974;2023-08-07T08:44:06;98217.19;;;17.41;77.80
77235;BME280;66253;50.526;14.974;2023-08-07T08:46:35;98214.01;;;17.62;77.90
77235;BME280;66253;50.526;14.974;2023-08-07T08:49:05;98215.61;;;17.81;76.35
77235;BME280;66253;50.526;14.974;2023-08-07T08:51:35;98215.95;;;17.96;76.61
77235;BME280;66253;50.526;14.974;2023-08-07T08:54:04;98215.65;;;18.14;76.38
77235;BME280;66253;50.526;14.974;2023-08-07T08:56:34;98212.50;;;18.33;76.25
77235;BME280;66253;50.526;14.974;2023-08-07T08:59:04;98217.23;;;18.54;75.73
77235;BME280;66253;50.526;14.974;2023-08-07T09:01:32;98218.02;;;18.69;74.43
77235;BME280;66253;50.526;14.974;2023-08-07T09:04:02;98219.26;;;18.84;73.51
77235;BME280;66253;50.526;14.974;2023-08-07T09:06:32;98219.35;;;18.93;72.37
77235;BME280;66253;50.526;14.974;2023-08-07T09:09:01;98221.81;;;18.96;72.03
77235;BME280;66253;50.526;14.974;2023-08-07T09:11:33;98218.59;;;18.97;71.71
77235;BME280;66253;50.526;14.974;2023-08-07T09:14:03;98231.94;;;18.92;70.25
77235;BME280;66253;50.526;14.974;2023-08-07T09:16:30;98241.96;;;18.82;70.01
77235;BME280;66253;50.526;14.974;2023-08-07T09:18:59;98257.27;;;18.70;69.88
77235;BME280;66253;50.526;14.974;2023-08-07T09:21:28;98266.06;;;18.51;70.34
77235;BME280;66253;50.526;14.974;2023-08-07T09:23:56;98273.63;;;18.33;71.01
77235;BME280;66253;50.526;14.974;2023-08-07T09:26:27;98264.84;;;18.18;71.12
77235;BME280;66253;50.526;14.974;2023-08-07T09:28:56;98263.04;;;18.03;71.74
77235;BME280;66253;50.526;14.974;2023-08-07T09:31:27;98264.50;;;17.96;72.46
77235;BME280;66253;50.526;14.974;2023-08-07T09:34:00;98264.16;;;17.93;72.70
77235;BME280;66253;50.526;14.974;2023-08-07T09:36:31;98270.16;;;17.93;73.29
77235;BME280;66253;50.526;14.974;2023-08-07T09:39:02;98266.64;;;17.97;73.48
77235;BME280;66253;50.526;14.974;2023-08-07T09:41:31;98270.26;;;18.02;73.09
77235;BME280;66253;50.526;14.974;2023-08-07T09:43:58;98268.02;;;18.09;73.53
77235;BME280;66253;50.526;14.974;2023-08-07T09:46:33;98270.88;;;18.23;73.69
77235;BME280;66253;50.526;14.974;2023-08-07T09:49:08;98265.35;;;18.42;73.97
77235;BME280;66253;50.526;14.974;2023-08-07T09:51:46;98272.82;;;18.63;73.92
77235;BME280;66253;50.526;14.974;2023-08-07T09:54:15;98270.70;;;18.82;72.41
77235;BME280;66253;50.526;14.974;2023-08-07T09:56:45;98271.64;;;18.97;72.39
77235;BME280;66253;50.526;14.974;2023-08-07T09:59:14;98276.99;;;19.14;72.16
77235;BME280;66253;50.526;14.974;2023-08-07T10:01:43;98280.33;;;19.23;71.20
77235;BME280;66253;50.526;14.974;2023-08-07T10:04:11;98272.34;;;19.32;71.11
77235;BME280;66253;50.526;14.974;2023-08-07T10:06:40;98278.98;;;19.42;70.97
77235;BME280;66253;50.526;14.974;2023-08-07T10:09:09;98277.23;;;19.49;70.06
77235;BME280;66253;50.526;14.974;2023-08-07T10:11:37;98283.66;;;19.55;70.06
77235;BME280;66253;50.526;14.974;2023-08-07T10:14:06;98280.17;;;19.60;69.87
77235;BME280;66253;50.526;14.974;2023-08-07T10:16:34;98280.27;;;19.67;69.59
77235;BME280;66253;50.526;14.974;2023-08-07T10:19:03;98282.98;;;19.78;69.26
77235;BME280;66253;50.526;14.974;2023-08-07T10:21:31;98282.34;;;19.85;68.80
77235;BME280;66253;50.526;14.974;2023-08-07T10:24:01;98277.38;;;19.94;68.42
77235;BME280;66253;50.526;14.974;2023-08-07T10:26:32;98281.77;;;19.92;66.14
77235;BME280;66253;50.526;14.974;2023-08-07T10:29:02;98284.67;;;19.87;66.74
77235;BME280;66253;50.526;14.974;2023-08-07T10:31:31;98292.56;;;19.80;65.88
77235;BME280;66253;50.526;14.974;2023-08-07T10:34:02;98294.05;;;19.71;65.76
77235;BME280;66253;50.526;14.974;2023-08-07T10:36:35;98297.79;;;19.61;65.62
77235;BME280;66253;50.526;14.974;2023-08-07T10:39:14;98297.20;;;19.58;65.58
77235;BME280;66253;50.526;14.974;2023-08-07T10:41:46;98295.08;;;19.62;65.97
77235;BME280;66253;50.526;14.974;2023-08-07T10:44:21;98300.95;;;19.78;66.72
77235;BME280;66253;50.526;14.974;2023-08-07T10:46:51;98294.89;;;19.94;65.09
77235;BME280;66253;50.526;14.974;2023-08-07T10:49:34;98285.73;;;20.11;65.71
77235;BME280;66253;50.526;14.974;2023-08-07T10:52:06;98288.88;;;20.31;65.37
77235;BME280;66253;50.526;14.974;2023-08-07T10:54:40;98288.21;;;20.50;64.85
77235;BME280;66253;50.526;14.974;2023-08-07T10:57:11;98285.61;;;20.67;64.52
77235;BME280;66253;50.526;14.974;2023-08-07T10:59:40;98286.05;;;20.78;63.39
77235;BME280;66253;50.526;14.974;2023-08-07T11:02:21;98287.31;;;20.81;63.32
77235;BME280;66253;50.526;14.974;2023-08-07T11:04:50;98290.88;;;20.77;62.41
77235;BME280;66253;50.526;14.974;2023-08-07T11:07:26;98290.50;;;20.66;62.36
77235;BME280;66253;50.526;14.974;2023-08-07T11:09:56;98287.14;;;20.56;62.71
77235;BME280;66253;50.526;14.974;2023-08-07T11:12:27;98297.20;;;20.44;63.32
77235;BME280;66253;50.526;14.974;2023-08-07T11:14:56;98292.83;;;20.34;64.15
77235;BME280;66253;50.526;14.974;2023-08-07T11:17:26;98290.98;;;20.32;64.70
77235;BME280;66253;50.526;14.974;2023-08-07T11:19:56;98280.80;;;20.41;65.05
77235;BME280;66253;50.526;14.974;2023-08-07T11:22:24;98275.52;;;20.52;64.72
77235;BME280;66253;50.526;14.974;2023-08-07T11:24:53;98277.52;;;20.58;62.75
77235;BME280;66253;50.526;14.974;2023-08-07T11:27:23;98283.89;;;20.58;63.28
77235;BME280;66253;50.526;14.974;2023-08-07T11:29:51;98288.93;;;20.57;62.75
77235;BME280;66253;50.526;14.974;2023-08-07T11:32:21;98289.02;;;20.57;61.46
77235;BME280;66253;50.526;14.974;2023-08-07T11:34:51;98286.71;;;20.63;62.45
77235;BME280;66253;50.526;14.974;2023-08-07T11:37:17;98290.87;;;20.74;62.26
77235;BME280;66253;50.526;14.974;2023-08-07T11:39:46;98289.11;;;20.83;62.26
77235;BME280;66253;50.526;14.974;2023-08-07T11:42:15;98290.77;;;20.91;61.55
77235;BME280;66253;50.526;14.974;2023-08-07T11:44:44;98291.76;;;20.91;61.53
77235;BME280;66253;50.526;14.974;2023-08-07T11:47:13;98296.58;;;20.86;60.54
77235;BME280;66253;50.526;14.974;2023-08-07T11:49:43;98301.73;;;20.82;60.94
77235;BME280;66253;50.526;14.974;2023-08-07T11:52:11;98303.27;;;20.80;60.58
77235;BME280;66253;50.526;14.974;2023-08-07T11:54:40;98299.81;;;20.84;61.29
77235;BME280;66253;50.526;14.974;2023-08-07T11:57:17;98301.04;;;20.92;60.62
77235;BME280;66253;50.526;14.974;2023-08-07T11:59:52;98299.75;;;20.98;60.24
77235;BME280;66253;50.526;14.974;2023-08-07T12:02:25;98300.36;;;21.10;60.62
77235;BME280;66253;50.526;14.974;2023-08-07T12:04:58;98300.09;;;21.21;60.48
77235;BME280;66253;50.526;14.974;2023-08-07T12:07:27;98303.35;;;21.32;59.72
77235;BME280;66253;50.526;14.974;2023-08-07T12:09:55;98306.02;;;21.38;58.88
77235;BME280;66253;50.526;14.974;2023-08-07T12:12:23;98305.30;;;21.38;58.68
77235;BME280;66253;50.526;14.974;2023-08-07T12:14:55;98311.86;;;21.37;58.22
77235;BME280;66253;50.526;14.974;2023-08-07T12:17:24;98313.40;;;21.32;57.58
77235;BME280;66253;50.526;14.974;2023-08-07T12:19:52;98313.58;;;21.25;57.75
77235;BME280;66253;50.526;14.974;2023-08-07T12:22:21;98316.23;;;21.21;58.30
77235;BME280;66253;50.526;14.974;2023-08-07T12:24:49;98317.47;;;21.18;58.23
77235;BME280;66253;50.526;14.974;2023-08-07T12:27:18;98322.56;;;21.10;57.73
77235;BME280;66253;50.526;14.974;2023-08-07T12:29:46;98331.45;;;21.05;57.78
77235;BME280;66253;50.526;14.974;2023-08-07T12:32:14;98326.71;;;20.96;58.12
77235;BME280;66253;50.526;14.974;2023-08-07T12:34:42;98329.83;;;20.87;57.97
77235;BME280;66253;50.526;14.974;2023-08-07T12:37:11;98321.15;;;20.76;58.26
77235;BME280;66253;50.526;14.974;2023-08-07T12:39:40;98329.02;;;20.70;58.26
77235;BME280;66253;50.526;14.974;2023-08-07T12:42:08;98325.16;;;20.58;58.33
77235;BME280;66253;50.526;14.974;2023-08-07T12:44:37;98329.48;;;20.46;58.04
77235;BME280;66253;50.526;14.974;2023-08-07T12:47:06;98339.55;;;20.29;57.76
77235;BME280;66253;50.526;14.974;2023-08-07T12:49:34;98344.98;;;20.11;58.28
77235;BME280;66253;50.526;14.974;2023-08-07T12:52:03;98358.24;;;19.96;59.60
77235;BME280;66253;50.526;14.974;2023-08-07T12:54:32;98368.42;;;19.79;60.34
77235;BME280;66253;50.526;14.974;2023-08-07T12:57:01;98381.00;;;19.63;61.74
77235;BME280;66253;50.526;14.974;2023-08-07T12:59:29;98375.95;;;19.52;63.19